Time;durP1;ratioP1;P1;durP2;ratioP2;P2;SDS_P1;SDS_P2;PMS_P1;PMS_P2;Temp;Humidity;BMP_temperature;BMP_pressure;BME280_temperature;BME280_humidity;BME280_pressure;Samples;Min_cycle;Max_cycle;Signal;HPM_P1;HPM_P2
2023/04/26 00:02:14;;;;;;;18.42;6.20;;;5.60;99.90;;;;;;5035320;28;20504;-60
2023/04/26 00:04:42;;;;;;;19.60;6.80;;;5.60;99.90;;;;;;5029420;28;20052;-60
2023/04/26 00:07:12;;;;;;;14.40;5.13;;;5.60;99.90;;;;;;5019124;28;20037;-59
2023/04/26 00:09:41;;;;;;;13.00;6.07;;;5.60;99.90;;;;;;5028586;28;20049;-60
2023/04/26 00:12:10;;;;;;;14.55;5.90;;;5.50;99.90;;;;;;5038197;28;20044;-60
2023/04/26 00:14:38;;;;;;;12.15;6.20;;;5.50;99.90;;;;;;5040683;28;20400;-60
2023/04/26 00:17:05;;;;;;;15.43;6.72;;;5.50;99.90;;;;;;5044008;28;20390;-60
2023/04/26 00:19:33;;;;;;;16.65;6.78;;;5.50;99.90;;;;;;5026136;28;20048;-60
2023/04/26 00:22:01;;;;;;;17.45;6.35;;;5.40;99.90;;;;;;5048896;28;20056;-58
2023/04/26 00:24:29;;;;;;;13.05;5.60;;;5.50;99.90;;;;;;5030249;28;20067;-59
2023/04/26 00:26:57;;;;;;;12.73;6.70;;;5.50;99.90;;;;;;5046790;28;20041;-59
2023/04/26 00:29:25;;;;;;;13.93;6.60;;;5.40;99.90;;;;;;5045960;28;20056;-58
2023/04/26 00:31:52;;;;;;;11.93;6.57;;;5.40;99.90;;;;;;5047401;28;20339;-60
2023/04/26 00:34:20;;;;;;;13.25;6.97;;;5.50;99.90;;;;;;5016817;28;20049;-59
2023/04/26 00:36:49;;;;;;;13.50;5.78;;;5.50;99.90;;;;;;5028252;28;20041;-59
2023/04/26 00:39:17;;;;;;;11.60;5.95;;;5.50;99.90;;;;;;5021615;28;20051;-60
2023/04/26 00:41:46;;;;;;;15.48;6.63;;;5.50;99.90;;;;;;5048161;28;20036;-59
2023/04/26 00:44:14;;;;;;;13.77;6.50;;;5.50;99.90;;;;;;5040736;28;20049;-59
2023/04/26 00:46:44;;;;;;;15.75;5.25;;;5.60;99.90;;;;;;5047700;28;20052;-59
2023/04/26 00:49:17;;;;;;;13.82;6.20;;;5.60;99.90;;;;;;5020811;28;20045;-59
2023/04/26 00:51:45;;;;;;;;;;;5.60;99.90;;;;;;5028819;28;20056;-59
2023/04/26 00:54:14;;;;;;;13.57;5.50;;;5.60;99.90;;;;;;5029438;28;20289;-61
2023/04/26 00:56:43;;;;;;;13.25;4.88;;;5.60;99.90;;;;;;5030260;28;20037;-60
2023/04/26 00:59:11;;;;;;;17.65;5.88;;;5.60;99.90;;;;;;5021246;28;20512;-60
2023/04/26 01:01:41;;;;;;;8.63;3.97;;;5.70;99.90;;;;;;5038630;28;20049;-62
2023/04/26 01:04:09;;;;;;;10.48;4.90;;;5.70;99.90;;;;;;5030764;28;20485;-59
2023/04/26 01:06:37;;;;;;;10.68;5.32;;;5.70;99.90;;;;;;5024979;28;20064;-59
2023/04/26 01:09:14;;;;;;;11.25;4.90;;;5.80;99.90;;;;;;5010395;28;20054;-61
2023/04/26 01:11:43;;;;;;;10.20;4.78;;;5.80;99.90;;;;;;5021797;28;20404;-60
2023/04/26 01:14:11;;;;;;;13.70;5.28;;;5.80;99.90;;;;;;5017326;28;20209;-60
2023/04/26 01:16:39;;;;;;;11.93;5.32;;;5.90;99.90;;;;;;5038974;28;20037;-60
2023/04/26 01:19:11;;;;;;;17.30;6.05;;;5.90;99.90;;;;;;5030701;28;20137;-62
2023/04/26 01:21:40;;;;;;;12.18;4.75;;;5.90;99.90;;;;;;5028104;28;20049;-60
2023/04/26 01:24:09;;;;;;;14.23;5.80;;;5.80;99.90;;;;;;5014303;28;20489;-60
2023/04/26 01:26:45;;;;;;;12.65;5.35;;;5.80;99.90;;;;;;5048007;28;20492;-60
2023/04/26 01:29:19;;;;;;;12.10;5.32;;;5.80;99.90;;;;;;5047095;28;20056;-58
2023/04/26 01:31:47;;;;;;;9.73;4.43;;;5.80;99.90;;;;;;5038525;28;20056;-59
2023/04/26 01:34:15;;;;;;;9.80;4.30;;;5.80;99.90;;;;;;5016690;28;20432;-59
2023/04/26 01:36:45;;;;;;;8.65;4.97;;;5.80;99.90;;;;;;5030886;28;20401;-61
2023/04/26 01:39:13;;;;;;;12.57;5.18;;;5.80;99.90;;;;;;5030850;28;20046;-59
2023/04/26 01:41:42;;;;;;;14.77;5.18;;;5.80;99.90;;;;;;5020900;28;20048;-60
2023/04/26 01:44:10;;;;;;;11.43;5.10;;;5.80;99.90;;;;;;5050252;28;20052;-59
2023/04/26 01:46:37;;;;;;;10.90;5.10;;;5.70;99.90;;;;;;5031687;28;20052;-60
2023/04/26 01:49:05;;;;;;;12.18;4.95;;;5.70;99.90;;;;;;5050835;28;20060;-59
2023/04/26 01:51:33;;;;;;;11.23;5.28;;;5.70;99.90;;;;;;5046537;28;20055;-59
2023/04/26 01:54:01;;;;;;;11.98;5.22;;;5.70;99.90;;;;;;5059556;28;20068;-60
2023/04/26 01:56:28;;;;;;;10.85;4.57;;;5.70;99.90;;;;;;5070788;28;20049;-59
2023/04/26 01:58:58;;;;;;;11.32;4.70;;;5.70;99.90;;;;;;5068118;28;20048;-59
2023/04/26 02:01:25;;;;;;;11.38;4.65;;;5.70;99.90;;;;;;5060296;28;20033;-58
2023/04/26 02:03:53;;;;;;;11.13;4.75;;;5.80;99.90;;;;;;5054475;28;20056;-60
2023/04/26 02:06:21;;;;;;;14.70;5.35;;;5.80;99.90;;;;;;5052936;28;20436;-60
2023/04/26 02:08:52;;;;;;;11.80;4.63;;;5.80;99.90;;;;;;5053154;28;20037;-59
2023/04/26 02:11:21;;;;;;;;;;;5.80;99.90;;;;;;5057800;28;20053;-60
2023/04/26 02:13:52;;;;;;;10.13;5.25;;;5.80;99.90;;;;;;5061837;28;20276;-60
2023/04/26 02:16:20;;;;;;;18.90;6.40;;;5.80;99.90;;;;;;5072186;28;20052;-60
2023/04/26 02:18:48;;;;;;;12.85;4.80;;;5.80;99.90;;;;;;5074043;28;20047;-60
2023/04/26 02:21:17;;;;;;;9.98;4.82;;;5.80;99.90;;;;;;5073181;28;20044;-60
2023/04/26 02:23:45;;;;;;;9.43;5.20;;;5.80;99.90;;;;;;5073420;28;20475;-59
2023/04/26 02:26:13;;;;;;;9.90;4.70;;;5.80;99.90;;;;;;5072663;28;20048;-60
2023/04/26 02:28:43;;;;;;;11.25;5.00;;;5.80;99.90;;;;;;5073335;28;20059;-60
2023/04/26 02:31:13;;;;;;;;;;;5.80;99.90;;;;;;5064724;28;20399;-61
2023/04/26 02:33:40;;;;;;;15.32;4.97;;;5.80;99.90;;;;;;5072946;28;19920;-58
2023/04/26 02:36:09;;;;;;;10.85;4.70;;;5.80;99.90;;;;;;5069024;28;20415;-59
2023/04/26 02:38:36;;;;;;;11.77;4.85;;;5.80;99.90;;;;;;5052690;28;20045;-59
2023/04/26 02:41:05;;;;;;;11.20;4.80;;;5.80;99.90;;;;;;5060518;28;20048;-60
2023/04/26 02:43:33;;;;;;;12.15;5.10;;;5.80;99.90;;;;;;5069654;28;20044;-58
2023/04/26 02:46:01;;;;;;;10.23;4.50;;;5.80;99.90;;;;;;5052240;28;20041;-59
2023/04/26 02:48:30;;;;;;;10.55;4.63;;;5.80;99.90;;;;;;5051827;28;20049;-60
2023/04/26 02:50:58;;;;;;;22.15;4.85;;;5.80;99.90;;;;;;5052822;28;20048;-60
2023/04/26 02:53:25;;;;;;;10.32;4.68;;;5.80;99.90;;;;;;5035733;28;20056;-59
2023/04/26 02:55:54;;;;;;;12.85;4.93;;;5.70;99.90;;;;;;5051456;28;20049;-60
2023/04/26 02:58:22;;;;;;;10.60;5.22;;;5.70;99.90;;;;;;5033289;28;20484;-59
2023/04/26 03:00:50;;;;;;;12.95;5.63;;;5.70;99.90;;;;;;5041649;28;20045;-57
2023/04/26 03:03:18;;;;;;;17.40;5.40;;;5.70;99.90;;;;;;5035428;28;20052;-60
2023/04/26 03:05:46;;;;;;;17.58;5.20;;;5.70;99.90;;;;;;5053384;28;20052;-60
2023/04/26 03:08:13;;;;;;;8.98;4.32;;;5.70;99.90;;;;;;5019389;28;20037;-60
2023/04/26 03:10:44;;;;;;;13.73;5.03;;;5.70;99.90;;;;;;5030671;28;20075;-60
2023/04/26 03:13:12;;;;;;;11.55;5.07;;;5.70;99.90;;;;;;5034842;28;20043;-60
2023/04/26 03:15:44;;;;;;;14.38;4.82;;;5.70;99.90;;;;;;5035235;28;20091;-59
2023/04/26 03:18:13;;;;;;;13.27;5.07;;;5.70;99.90;;;;;;5035318;28;20060;-59
2023/04/26 03:20:41;;;;;;;12.48;4.32;;;5.70;99.90;;;;;;5034446;28;20044;-59
2023/04/26 03:23:09;;;;;;;17.58;6.00;;;5.70;99.90;;;;;;5053024;28;20040;-59
2023/04/26 03:25:37;;;;;;;11.77;5.32;;;5.70;99.90;;;;;;5041404;28;20492;-59
2023/04/26 03:28:05;;;;;;;12.50;5.32;;;5.60;99.90;;;;;;5015294;28;20045;-58
2023/04/26 03:30:33;;;;;;;11.80;5.20;;;;;;;;;;5040348;28;20056;-60
2023/04/26 03:33:01;;;;;;;9.93;4.53;;;5.70;99.90;;;;;;5035226;28;20044;-59
2023/04/26 03:35:28;;;;;;;11.70;5.15;;;5.70;99.90;;;;;;5052111;28;20049;-60
2023/04/26 03:37:56;;;;;;;12.68;4.68;;;5.70;99.90;;;;;;5027252;28;20620;-62
2023/04/26 03:40:26;;;;;;;12.35;5.22;;;5.70;99.90;;;;;;5015075;28;20049;-60
2023/04/26 03:42:54;;;;;;;12.55;5.22;;;5.70;99.90;;;;;;5027565;28;20200;-60
2023/04/26 03:45:22;;;;;;;13.25;5.05;;;5.60;99.90;;;;;;5052356;28;20052;-60
2023/04/26 03:47:50;;;;;;;13.57;4.85;;;5.60;99.90;;;;;;5052560;28;20052;-62
2023/04/26 03:50:21;;;;;;;9.43;4.20;;;5.60;99.90;;;;;;5034607;28;20163;-60
2023/04/26 03:52:49;;;;;;;16.50;5.35;;;5.60;99.90;;;;;;5051008;28;20044;-60
2023/04/26 03:55:17;;;;;;;13.30;4.90;;;5.60;99.90;;;;;;5046044;28;20044;-59
2023/04/26 03:57:45;;;;;;;7.60;5.07;;;5.60;99.90;;;;;;5034528;28;20037;-61
2023/04/26 04:00:13;;;;;;;15.23;4.90;;;5.50;99.90;;;;;;5034362;28;20400;-60
2023/04/26 04:02:45;;;;;;;10.88;4.63;;;5.60;99.90;;;;;;5046805;28;20040;-60
2023/04/26 04:05:22;;;;;;;15.40;5.13;;;5.60;99.90;;;;;;5048600;28;20033;-60
2023/04/26 04:07:51;;;;;;;10.75;4.60;;;5.50;99.90;;;;;;5014730;28;20037;-59
2023/04/26 04:10:21;;;;;;;19.80;5.18;;;;;;;;;;5014607;28;20041;-59
2023/04/26 04:12:50;;;;;;;12.38;4.70;;;5.50;99.90;;;;;;5015714;28;20109;-61
2023/04/26 04:15:19;;;;;;;10.13;4.85;;;5.50;99.90;;;;;;5016641;28;20532;-59
2023/04/26 04:17:47;;;;;;;16.30;5.43;;;5.50;99.90;;;;;;5031486;28;20063;-59
2023/04/26 04:20:15;;;;;;;17.45;5.22;;;5.50;99.90;;;;;;5051789;28;20040;-60
2023/04/26 04:22:43;;;;;;;11.38;5.22;;;5.50;99.90;;;;;;5033364;28;20046;-61
2023/04/26 04:25:10;;;;;;;9.32;4.82;;;5.50;99.90;;;;;;5024231;28;20045;-59
2023/04/26 04:27:41;;;;;;;12.13;4.53;;;5.40;99.90;;;;;;5051792;28;20037;-60
2023/04/26 04:30:11;;;;;;;12.25;4.40;;;5.40;99.90;;;;;;5033759;28;20037;-60
2023/04/26 04:32:43;;;;;;;15.00;4.75;;;5.40;99.90;;;;;;5033167;28;20400;-63
2023/04/26 04:35:12;;;;;;;12.38;4.75;;;5.40;99.90;;;;;;5032625;28;20044;-61
2023/04/26 04:37:40;;;;;;;12.60;5.73;;;5.30;99.90;;;;;;5031927;28;20046;-61
2023/04/26 04:40:09;;;;;;;11.07;4.80;;;5.30;99.90;;;;;;5015800;28;20045;-58
2023/04/26 04:42:40;;;;;;;10.85;4.93;;;5.30;99.90;;;;;;5033143;28;20048;-61
2023/04/26 04:45:09;;;;;;;16.03;5.17;;;5.20;99.90;;;;;;5032747;28;20044;-58
2023/04/26 04:47:38;;;;;;;12.32;5.10;;;5.20;99.90;;;;;;4996073;28;20048;-61
2023/04/26 04:50:07;;;;;;;14.93;5.72;;;5.20;99.90;;;;;;5028369;28;20489;-60
2023/04/26 04:52:36;;;;;;;12.73;5.38;;;5.20;99.90;;;;;;5046537;28;20063;-60
2023/04/26 04:55:04;;;;;;;11.43;5.05;;;5.20;99.90;;;;;;5056639;28;20036;-59
2023/04/26 04:57:33;;;;;;;13.00;5.22;;;5.20;99.90;;;;;;5066565;28;20044;-61
2023/04/26 05:00:09;;;;;;;15.77;5.57;;;5.20;99.90;;;;;;5046501;28;20045;-59
2023/04/26 05:02:42;;;;;;;15.18;6.57;;;5.00;99.90;;;;;;5060040;28;20485;-60
2023/04/26 05:05:11;;;;;;;12.55;5.57;;;5.20;99.90;;;;;;5045010;28;20053;-60
2023/04/26 05:07:39;;;;;;;10.68;4.57;;;5.20;99.90;;;;;;5048994;28;20385;-61
2023/04/26 05:10:07;;;;;;;13.85;5.82;;;5.20;99.90;;;;;;5052959;28;20048;-60
2023/04/26 05:12:36;;;;;;;10.00;5.15;;;5.20;99.90;;;;;;5050560;28;20044;-60
2023/04/26 05:15:04;;;;;;;15.50;4.90;;;5.20;99.90;;;;;;5063019;28;20056;-61
2023/04/26 05:17:33;;;;;;;16.60;5.30;;;5.20;99.90;;;;;;5064856;28;20045;-60
2023/04/26 05:20:15;;;;;;;13.02;5.53;;;8.30;99.90;;;;;;5048916;28;20508;-59
2023/04/26 05:22:43;;;;;;;13.02;5.03;;;5.20;99.90;;;;;;5062377;28;20052;-60
2023/04/26 05:25:12;;;;;;;13.00;5.78;;;5.20;99.90;;;;;;5064292;28;20052;-60
2023/04/26 05:27:41;;;;;;;;;;;5.20;99.90;;;;;;5064971;28;20047;-60
2023/04/26 05:30:15;;;;;;;18.48;5.40;;;5.20;99.90;;;;;;5057186;28;19925;-59
2023/04/26 05:32:49;;;;;;;11.73;4.68;;;5.30;99.90;;;;;;5053842;28;20056;-59
2023/04/26 05:35:32;;;;;;;10.60;5.13;;;5.30;99.90;;;;;;5069838;28;20052;-59
2023/04/26 05:38:00;;;;;;;10.50;4.82;;;5.30;99.90;;;;;;5061834;28;20404;-59
2023/04/26 05:40:28;;;;;;;10.82;5.13;;;5.30;99.90;;;;;;5052611;28;20059;-59
2023/04/26 05:42:56;;;;;;;11.48;5.28;;;5.30;99.90;;;;;;5050898;28;20045;-59
2023/04/26 05:45:26;;;;;;;14.93;6.03;;;5.30;99.90;;;;;;5046838;28;20530;-60
2023/04/26 05:47:53;;;;;;;14.35;4.72;;;5.30;99.90;;;;;;5050542;28;20049;-59
2023/04/26 05:50:21;;;;;;;14.00;5.43;;;5.40;99.90;;;;;;5048294;28;20056;-59
2023/04/26 05:52:52;;;;;;;15.20;5.28;;;5.40;99.90;;;;;;5031930;28;20037;-58
2023/04/26 05:55:22;;;;;;;15.30;5.50;;;5.50;99.90;;;;;;5033239;28;20055;-58
2023/04/26 05:57:50;;;;;;;15.68;5.80;;;5.50;99.90;;;;;;5030105;28;20048;-61
2023/04/26 06:00:22;;;;;;;19.17;5.57;;;5.50;99.90;;;;;;5030513;28;20246;-59
2023/04/26 06:02:53;;;;;;;14.32;6.35;;;5.60;99.90;;;;;;5029646;28;20049;-59
2023/04/26 06:05:21;;;;;;;16.48;5.70;;;5.60;99.90;;;;;;5012950;28;20038;-61
2023/04/26 06:07:50;;;;;;;15.43;6.55;;;5.70;99.90;;;;;;5030739;28;20054;-59
2023/04/26 06:10:20;;;;;;;15.93;5.60;;;5.80;99.90;;;;;;5010473;28;20045;-58
2023/04/26 06:12:48;;;;;;;14.45;6.05;;;5.80;99.90;;;;;;5014082;28;20064;-60
2023/04/26 06:15:17;;;;;;;14.17;5.83;;;5.80;99.90;;;;;;5031268;28;20504;-59
2023/04/26 06:17:45;;;;;;;14.40;6.05;;;5.90;99.90;;;;;;5026307;28;20045;-59
2023/04/26 06:20:12;;;;;;;16.48;6.55;;;6.00;99.90;;;;;;5033106;28;20480;-58
2023/04/26 06:22:42;;;;;;;13.10;5.38;;;6.00;99.90;;;;;;5018757;28;20029;-60
2023/04/26 06:25:11;;;;;;;15.80;6.05;;;6.10;99.90;;;;;;5020873;28;20045;-60
2023/04/26 06:27:39;;;;;;;15.93;6.10;;;6.10;99.90;;;;;;5029664;28;20061;-60
2023/04/26 06:30:09;;;;;;;21.65;5.80;;;6.10;99.90;;;;;;5010667;28;20048;-61
2023/04/26 06:32:41;;;;;;;15.38;5.78;;;6.30;99.90;;;;;;5032700;28;20049;-60
2023/04/26 06:35:11;;;;;;;11.52;5.20;;;6.40;99.90;;;;;;5013047;28;20052;-59
2023/04/26 06:37:39;;;;;;;13.95;5.68;;;6.30;99.90;;;;;;5017133;28;20388;-59
2023/04/26 06:40:09;;;;;;;12.00;4.70;;;6.50;99.90;;;;;;5016320;28;20057;-58
2023/04/26 06:42:37;;;;;;;11.50;5.13;;;6.50;99.90;;;;;;5016588;28;20041;-59
2023/04/26 06:45:17;;;;;;;14.95;5.43;;;6.60;99.90;;;;;;5039999;28;20033;-60
2023/04/26 06:47:53;;;;;;;11.30;5.75;;;6.60;99.90;;;;;;5023037;28;20065;-60
2023/04/26 06:50:23;;;;;;;12.88;5.57;;;6.70;99.90;;;;;;5009350;28;20387;-59
2023/04/26 06:52:52;;;;;;;13.40;5.65;;;6.70;99.90;;;;;;5032027;28;20136;-59
2023/04/26 06:55:27;;;;;;;10.20;5.47;;;6.70;99.90;;;;;;5047035;28;20434;-59
2023/04/26 06:57:55;;;;;;;9.05;5.28;;;6.80;99.90;;;;;;5035749;28;20051;-60
2023/04/26 07:00:23;;;;;;;15.88;5.95;;;6.80;99.90;;;;;;5042673;28;20056;-59
2023/04/26 07:02:51;;;;;;;16.25;5.22;;;6.90;99.90;;;;;;5046282;28;20056;-59
2023/04/26 07:05:19;;;;;;;9.43;5.10;;;6.90;99.90;;;;;;5011426;28;20355;-57
2023/04/26 07:07:48;;;;;;;13.45;5.70;;;6.90;99.90;;;;;;5031196;28;20052;-58
2023/04/26 07:10:16;;;;;;;10.90;5.47;;;6.90;99.90;;;;;;5046405;28;20526;-59
2023/04/26 07:12:43;;;;;;;15.07;5.55;;;7.10;99.90;;;;;;5044041;28;20055;-59
2023/04/26 07:15:11;;;;;;;11.48;5.28;;;7.10;99.90;;;;;;5043280;28;20052;-59
2023/04/26 07:17:39;;;;;;;12.80;5.35;;;7.10;99.90;;;;;;5039458;28;20048;-59
2023/04/26 07:20:07;;;;;;;12.05;5.53;;;7.20;99.90;;;;;;5030370;28;20045;-59
2023/04/26 07:22:38;;;;;;;11.73;5.03;;;7.20;99.90;;;;;;5013965;28;20053;-58
2023/04/26 07:25:05;;;;;;;12.90;4.38;;;7.30;99.90;;;;;;5046375;28;20634;-59
2023/04/26 07:27:36;;;;;;;8.88;4.75;;;7.50;99.90;;;;;;5019626;28;20049;-58
2023/04/26 07:30:05;;;;;;;9.50;4.68;;;7.50;99.90;;;;;;5032162;28;20515;-59
2023/04/26 07:32:32;;;;;;;9.68;5.43;;;7.50;99.90;;;;;;5045036;28;20504;-60
2023/04/26 07:35:05;;;;;;;12.48;5.05;;;7.50;99.90;;;;;;5033040;28;20601;-58
2023/04/26 07:37:32;;;;;;;12.30;5.18;;;7.60;99.90;;;;;;5029364;28;20049;-58
2023/04/26 07:40:00;;;;;;;14.43;5.63;;;7.60;99.90;;;;;;5029344;28;20045;-58
2023/04/26 07:42:28;;;;;;;8.75;4.78;;;7.70;99.90;;;;;;5048010;28;20497;-58
2023/04/26 07:44:55;;;;;;;13.15;4.82;;;7.80;99.90;;;;;;5049100;28;20045;-59
2023/04/26 07:47:23;;;;;;;14.55;4.95;;;7.90;99.90;;;;;;5027695;28;20068;-58
2023/04/26 07:49:53;;;;;;;10.68;4.15;;;7.90;99.90;;;;;;5041697;28;20064;-62
2023/04/26 07:52:21;;;;;;;12.05;5.28;;;8.00;99.90;;;;;;5048574;28;20052;-62
2023/04/26 07:54:49;;;;;;;13.50;6.20;;;8.00;99.90;;;;;;5047704;28;20045;-61
2023/04/26 07:57:17;;;;;;;8.63;4.55;;;8.10;99.90;;;;;;5046205;28;20033;-59
2023/04/26 07:59:45;;;;;;;14.75;6.40;;;8.10;99.90;;;;;;5047407;28;20216;-58
2023/04/26 08:02:13;;;;;;;10.43;4.25;;;8.20;99.90;;;;;;5047577;28;20045;-59
2023/04/26 08:04:54;;;;;;;9.23;4.20;;;8.20;99.90;;;;;;5033918;28;20057;-57
2023/04/26 08:07:22;;;;;;;16.73;6.53;;;8.30;99.90;;;;;;5029314;28;20515;-58
2023/04/26 08:09:53;;;;;;;8.63;3.88;;;8.40;99.90;;;;;;5048932;28;20063;-58
2023/04/26 08:12:21;;;;;;;12.45;5.30;;;8.60;99.90;;;;;;5047362;28;20580;-59
2023/04/26 08:14:49;;;;;;;9.52;4.60;;;8.70;99.90;;;;;;5048393;28;20045;-58
2023/04/26 08:17:19;;;;;;;11.57;4.55;;;8.80;99.90;;;;;;5029858;28;20500;-59
2023/04/26 08:19:47;;;;;;;8.18;4.03;;;9.00;99.90;;;;;;5040252;28;20041;-58
2023/04/26 08:22:15;;;;;;;11.93;4.07;;;9.00;99.90;;;;;;5043079;28;20476;-59
2023/04/26 08:24:48;;;;;;;9.68;4.43;;;9.00;99.90;;;;;;5040434;28;20392;-60
2023/04/26 08:27:18;;;;;;;10.85;5.07;;;9.10;99.90;;;;;;5048234;28;20044;-59
2023/04/26 08:29:45;;;;;;;19.05;4.55;;;9.20;99.90;;;;;;5048249;28;20052;-61
2023/04/26 08:32:13;;;;;;;14.98;4.43;;;9.20;99.90;;;;;;5016053;28;20061;-61
2023/04/26 08:34:41;;;;;;;8.13;3.78;;;9.30;99.90;;;;;;5042172;28;20053;-56
2023/04/26 08:37:10;;;;;;;7.07;2.65;;;9.30;99.90;;;;;;5046088;28;20045;-59
2023/04/26 08:39:38;;;;;;;12.82;3.65;;;9.40;99.90;;;;;;5036791;28;20054;-57
2023/04/26 08:42:16;;;;;;;7.38;3.50;;;9.50;99.90;;;;;;5034208;28;20052;-58
2023/04/26 08:44:45;;;;;;;12.30;3.30;;;9.60;99.90;;;;;;5047116;28;20040;-59
2023/04/26 08:47:26;;;;;;;8.43;2.53;;;9.80;99.90;;;;;;5029836;28;20064;-57
2023/04/26 08:50:02;;;;;;;8.02;2.70;;;9.80;99.90;;;;;;5047171;28;20523;-58
2023/04/26 08:52:34;;;;;;;7.25;1.80;;;9.90;99.90;;;;;;5050399;28;20049;-59
2023/04/26 08:55:06;;;;;;;9.93;3.42;;;10.00;99.90;;;;;;5052439;28;20049;-59
2023/04/26 08:57:34;;;;;;;;;;;10.00;99.90;;;;;;5051738;28;20450;-58
2023/04/26 09:00:04;;;;;;;15.25;3.17;;;10.00;99.90;;;;;;5067399;28;20375;-57
2023/04/26 09:02:33;;;;;;;9.73;2.45;;;10.00;99.90;;;;;;5067632;28;20044;-61
2023/04/26 09:05:03;;;;;;;7.87;2.53;;;10.10;99.90;;;;;;5048456;28;20048;-57
2023/04/26 09:07:36;;;;;;;9.45;2.88;;;10.20;99.90;;;;;;5047473;28;20290;-59
2023/04/26 09:10:05;;;;;;;6.05;2.20;;;10.30;99.90;;;;;;5061151;28;20047;-58
2023/04/26 09:12:33;;;;;;;7.18;2.90;;;10.40;99.90;;;;;;5067704;28;20052;-58
2023/04/26 09:15:03;;;;;;;15.05;3.08;;;10.50;99.90;;;;;;5048309;28;20071;-58
2023/04/26 09:17:36;;;;;;;7.95;2.58;;;10.60;99.90;;;;;;5045697;28;20053;-60
2023/04/26 09:20:21;;;;;;;27.58;3.85;;;10.70;99.90;;;;;;5010582;28;20041;-58
2023/04/26 09:23:02;;;;;;;11.02;2.85;;;11.60;99.90;;;;;;5054157;28;20057;-59
2023/04/26 09:25:31;;;;;;;5.93;3.00;;;10.80;99.90;;;;;;5063182;28;20076;-59
2023/04/26 09:27:59;;;;;;;9.43;2.60;;;10.90;99.90;;;;;;5047444;28;20052;-59
2023/04/26 09:30:28;;;;;;;8.30;2.95;;;10.90;99.90;;;;;;5066268;28;20427;-59
2023/04/26 09:33:03;;;;;;;10.13;2.88;;;11.00;99.90;;;;;;5059777;28;20052;-59
2023/04/26 09:35:38;;;;;;;9.85;2.65;;;11.10;99.90;;;;;;5052515;28;20399;-58
2023/04/26 09:38:18;;;;;;;9.38;3.33;;;11.20;99.90;;;;;;5066850;28;20051;-59
2023/04/26 09:40:46;;;;;;;;;;;11.30;99.90;;;;;;5063623;28;20400;-59
2023/04/26 09:43:15;;;;;;;11.30;3.00;;;11.40;99.90;;;;;;5058871;28;20727;-60
2023/04/26 09:45:53;;;;;;;8.80;3.30;;;11.60;99.90;;;;;;5046054;28;20049;-59
2023/04/26 09:48:24;;;;;;;11.52;2.63;;;11.80;99.90;;;;;;5066543;28;20488;-59
2023/04/26 09:50:54;;;;;;;8.93;2.50;;;11.80;99.90;;;;;;5053481;28;20044;-59
2023/04/26 09:53:27;;;;;;;4.60;2.30;;;11.90;99.60;;;;;;5034778;28;20054;-57
2023/04/26 09:55:56;;;;;;;4.65;2.40;;;11.90;99.80;;;;;;5032380;28;20042;-60
2023/04/26 09:58:24;;;;;;;9.02;2.65;;;12.00;99.90;;;;;;5041359;28;20049;-58
2023/04/26 10:00:53;;;;;;;8.23;2.75;;;12.00;99.90;;;;;;5042898;28;20045;-60
2023/04/26 10:03:22;;;;;;;13.65;4.13;;;12.10;99.90;;;;;;5043869;28;20056;-59
2023/04/26 10:05:50;;;;;;;8.40;2.70;;;12.20;99.90;;;;;;5042240;28;20056;-60
2023/04/26 10:08:18;;;;;;;8.95;2.70;;;12.20;98.30;;;;;;5044095;28;20503;-58
2023/04/26 10:10:48;;;;;;;9.77;2.72;;;12.20;96.90;;;;;;5046998;28;20480;-57
2023/04/26 10:13:17;;;;;;;9.35;2.20;;;12.30;98.00;;;;;;5046984;28;20071;-59
2023/04/26 10:15:46;;;;;;;5.78;2.35;;;12.30;98.30;;;;;;5041256;28;20042;-62
2023/04/26 10:18:13;;;;;;;6.93;2.53;;;12.40;96.80;;;;;;5035637;28;20056;-58
2023/04/26 10:20:47;;;;;;;12.10;3.95;;;12.50;95.00;;;;;;5042429;28;20045;-59
2023/04/26 10:23:20;;;;;;;6.75;2.55;;;12.50;94.60;;;;;;5018858;28;20049;-60
2023/04/26 10:25:48;;;;;;;14.25;3.58;;;12.50;93.60;;;;;;5024176;28;20420;-59
2023/04/26 10:28:17;;;;;;;15.23;3.35;;;12.60;94.20;;;;;;5013037;28;20049;-60
2023/04/26 10:30:59;;;;;;;6.72;3.17;;;12.70;94.60;;;;;;5050359;28;20124;-59
2023/04/26 10:33:27;;;;;;;11.93;3.85;;;12.90;93.60;;;;;;5028499;28;20059;-60
2023/04/26 10:36:08;;;;;;;11.65;4.13;;;12.90;93.60;;;;;;5046088;28;20602;-60
2023/04/26 10:38:38;;;;;;;15.55;4.50;;;13.00;93.00;;;;;;5044351;28;20048;-60
2023/04/26 10:41:25;;;;;;;;;;;13.00;93.90;;;;;;5043465;28;20048;-59
2023/04/26 10:43:53;;;;;;;10.45;4.22;;;13.10;92.70;;;;;;5042132;28;20521;-59
2023/04/26 10:46:39;;;;;;;15.98;4.38;;;13.20;92.60;;;;;;5043528;28;20484;-59
2023/04/26 10:49:15;;;;;;;14.57;3.90;;;13.30;92.90;;;;;;5042213;28;20045;-60
2023/04/26 10:52:12;;;;;;;8.65;4.05;;;13.30;91.40;;;;;;5050798;28;20044;-62
2023/04/26 10:54:51;;;;;;;8.05;4.25;;;13.30;91.40;;;;;;5060716;28;20416;-59
2023/04/26 10:57:19;;;;;;;11.85;5.75;;;13.30;90.50;;;;;;5051075;28;20049;-58
2023/04/26 11:00:12;;;;;;;9.60;3.92;;;13.40;89.80;;;;;;5061691;28;20048;-59
2023/04/26 11:02:49;;;;;;;8.82;4.15;;;13.40;86.50;;;;;;5070031;28;20059;-58
2023/04/26 11:05:49;;;;;;;6.72;3.20;;;13.40;87.40;;;;;;5069317;28;20045;-60
2023/04/26 11:08:19;;;;;;;11.20;3.92;;;13.50;88.30;;;;;;5060618;28;20056;-59
2023/04/26 11:11:02;;;;;;;12.07;3.88;;;13.50;85.40;;;;;;5048877;28;20377;-59
2023/04/26 11:13:37;;;;;;;12.25;3.80;;;13.60;86.70;;;;;;5056072;28;20041;-59
2023/04/26 11:16:10;;;;;;;12.48;3.67;;;13.70;88.00;;;;;;5048288;28;20044;-59
2023/04/26 11:18:45;;;;;;;7.15;3.22;;;13.80;83.50;;;;;;5057320;28;20044;-62
2023/04/26 11:21:18;;;;;;;10.13;3.85;;;13.80;83.10;;;;;;5052667;28;20048;-60
2023/04/26 11:23:53;;;;;;;17.33;3.88;;;13.70;78.30;;;;;;5060382;28;20045;-57
2023/04/26 11:26:21;;;;;;;8.80;4.18;;;13.60;79.20;;;;;;5050380;28;20253;-59
2023/04/26 11:28:51;;;;;;;11.50;3.80;;;13.70;79.10;;;;;;5056318;28;20057;-60
2023/04/26 11:31:19;;;;;;;16.23;4.38;;;13.70;80.30;;;;;;5048910;28;20037;-59
2023/04/26 11:33:47;;;;;;;13.57;4.00;;;13.70;83.10;;;;;;5054408;28;20476;-59
2023/04/26 11:36:18;;;;;;;;;;;13.70;81.10;;;;;;5051880;28;20476;-59
2023/04/26 11:38:49;;;;;;;6.80;3.40;;;13.80;79.40;;;;;;5055560;28;20430;-59
2023/04/26 11:41:21;;;;;;;;;;;13.80;80.20;;;;;;5052854;28;20052;-60
2023/04/26 11:43:49;;;;;;;13.25;4.03;;;13.80;80.00;;;;;;5062940;28;19927;-58
2023/04/26 11:46:20;;;;;;;11.07;3.30;;;13.90;83.60;;;;;;5054012;28;20044;-58
2023/04/26 11:48:48;;;;;;;8.40;3.53;;;14.20;84.80;;;;;;5055484;28;20048;-59
2023/04/26 11:51:17;;;;;;;11.48;3.95;;;14.50;83.00;;;;;;5040086;28;20053;-59
2023/04/26 11:53:44;;;;;;;6.72;3.20;;;14.80;81.50;;;;;;5032299;28;20054;-60
2023/04/26 11:56:16;;;;;;;8.63;3.70;;;15.20;78.20;;;;;;5046035;28;20059;-59
2023/04/26 11:58:48;;;;;;;8.68;3.25;;;15.40;77.00;;;;;;5037522;28;20038;-59
2023/04/26 12:01:21;;;;;;;11.65;3.80;;;15.30;73.90;;;;;;5029636;28;20049;-59
2023/04/26 12:03:50;;;;;;;6.75;3.33;;;15.20;75.60;;;;;;5042354;28;20049;-58
2023/04/26 12:06:19;;;;;;;;;;;14.90;75.40;;;;;;5047516;28;20044;-59
2023/04/26 12:08:50;;;;;;;;;;;14.70;76.90;;;;;;5047970;28;19921;-59
2023/04/26 12:11:18;;;;;;;16.70;3.50;;;14.40;76.40;;;;;;5017996;28;19928;-57
2023/04/26 12:13:46;;;;;;;8.70;3.50;;;14.20;79.00;;;;;;5048374;28;20052;-58
2023/04/26 12:16:15;;;;;;;11.10;3.40;;;14.10;79.50;;;;;;5029249;28;20403;-59
2023/04/26 12:18:55;;;;;;;8.38;3.60;;;14.00;80.00;;;;;;5028590;28;20049;-58
2023/04/26 12:21:24;;;;;;;6.63;3.35;;;13.90;81.20;;;;;;5011962;28;20038;-59
2023/04/26 12:23:54;;;;;;;7.55;3.40;;;13.80;82.30;;;;;;5041662;28;20041;-59
2023/04/26 12:26:44;;;;;;;11.02;3.50;;;13.70;80.80;;;;;;5036522;28;20530;-59
2023/04/26 12:29:12;;;;;;;;;;;13.60;82.30;;;;;;5045943;28;20072;-59
2023/04/26 12:31:40;;;;;;;8.40;3.75;;;13.60;83.10;;;;;;5047478;28;19928;-58
2023/04/26 12:34:08;;;;;;;9.25;4.20;;;13.50;83.00;;;;;;5048240;28;20049;-59
2023/04/26 12:36:35;;;;;;;7.63;3.65;;;13.50;82.00;;;;;;5046471;28;20041;-59
2023/04/26 12:39:04;;;;;;;10.77;3.75;;;13.20;82.00;;;;;;5037585;28;20559;-58
2023/04/26 12:41:32;;;;;;;9.82;3.75;;;13.20;82.70;;;;;;5041878;28;20409;-58
2023/04/26 12:44:00;;;;;;;6.03;3.53;;;13.30;84.50;;;;;;5032604;28;20041;-59
2023/04/26 12:46:28;;;;;;;9.25;3.58;;;13.30;84.20;;;;;;5039717;28;20052;-59
2023/04/26 12:48:56;;;;;;;9.82;3.17;;;13.50;84.20;;;;;;5047825;28;20540;-59
2023/04/26 12:51:23;;;;;;;11.30;3.88;;;13.70;85.30;;;;;;5044474;28;20041;-59
2023/04/26 12:53:52;;;;;;;9.38;3.67;;;13.90;84.50;;;;;;5028300;28;20057;-60
2023/04/26 12:56:20;;;;;;;7.78;3.35;;;14.20;83.80;;;;;;5046550;28;20485;-60
2023/04/26 12:58:48;;;;;;;9.68;3.25;;;14.50;79.90;;;;;;5038117;28;20041;-60
2023/04/26 13:01:16;;;;;;;14.20;3.42;;;14.60;78.60;;;;;;5029165;28;20072;-59
2023/04/26 13:03:44;;;;;;;9.32;3.70;;;14.70;79.70;;;;;;5046386;28;20056;-59
2023/04/26 13:06:12;;;;;;;12.35;4.03;;;14.70;77.50;;;;;;5047327;28;20052;-58